createdAt,value
2019-01-30T00:01:43.487Z,0.10
2019-01-30T00:04:12.818Z,0.10
2019-01-30T00:06:42.093Z,0.20
2019-01-30T00:09:11.423Z,0.20
2019-01-30T00:11:40.873Z,0.10
2019-01-30T00:14:10.137Z,0.10
2019-01-30T00:16:39.425Z,0.00
2019-01-30T00:19:08.996Z,-0.10
2019-01-30T00:21:38.338Z,-0.10
2019-01-30T00:24:07.532Z,-0.20
2019-01-30T00:26:36.890Z,-0.20
2019-01-30T00:29:06.593Z,-0.30
2019-01-30T00:31:35.909Z,-0.30
2019-01-30T00:34:05.505Z,-0.40
2019-01-30T00:36:35.362Z,-0.30
2019-01-30T00:39:07.471Z,-0.40
2019-01-30T00:41:36.980Z,-0.40
2019-01-30T00:44:06.314Z,-0.60
2019-01-30T00:46:35.885Z,-0.60
2019-01-30T00:49:05.173Z,-0.60
2019-01-30T00:51:34.830Z,-0.60
2019-01-30T00:54:04.099Z,-0.70
2019-01-30T00:56:33.395Z,-0.80
2019-01-30T00:59:02.601Z,-0.90
2019-01-30T01:01:31.816Z,-0.90
2019-01-30T01:04:01.042Z,-0.90
2019-01-30T01:06:30.341Z,-0.80
2019-01-30T01:08:59.861Z,-0.80
2019-01-30T01:11:29.731Z,-0.80
2019-01-30T01:13:59.021Z,-0.80
2019-01-30T01:16:28.572Z,-0.80
2019-01-30T01:18:57.874Z,-0.80
2019-01-30T01:21:27.382Z,-0.80
2019-01-30T01:23:56.742Z,-0.80
2019-01-30T01:26:26.281Z,-0.80
2019-01-30T01:28:55.836Z,-0.90
2019-01-30T01:31:25.384Z,-0.90
2019-01-30T01:33:55.025Z,-0.90
2019-01-30T01:36:24.341Z,-0.90
2019-01-30T01:38:53.888Z,-1.00
2019-01-30T01:41:23.157Z,-1.00
2019-01-30T01:43:52.789Z,-1.00
2019-01-30T01:46:22.032Z,-1.00
2019-01-30T01:48:51.571Z,-1.00
2019-01-30T01:51:21.182Z,-1.00
2019-01-30T01:53:50.409Z,-0.90
2019-01-30T01:56:19.793Z,-0.90
2019-01-30T01:58:49.616Z,-1.00
2019-01-30T02:01:18.987Z,-1.00
2019-01-30T02:03:49.869Z,-0.90
2019-01-30T02:06:19.624Z,-0.90
2019-01-30T02:08:49.427Z,-0.80
2019-01-30T02:11:19.546Z,-0.90
2019-01-30T02:13:49.270Z,-0.90
2019-01-30T02:16:18.942Z,-0.90
2019-01-30T02:18:49.038Z,-0.90
2019-01-30T02:21:18.548Z,-0.90
2019-01-30T02:23:48.092Z,-1.00
2019-01-30T02:26:17.634Z,-1.00
2019-01-30T02:28:47.017Z,-1.00
2019-01-30T02:31:16.232Z,-1.00
2019-01-30T02:33:46.091Z,-0.90
2019-01-30T02:36:16.934Z,-0.90
2019-01-30T02:38:46.374Z,-0.90
2019-01-30T02:41:16.085Z,-0.90
2019-01-30T02:43:45.804Z,-1.00
2019-01-30T02:46:16.797Z,-0.90
2019-01-30T02:49:04.137Z,-0.90
2019-01-30T02:51:33.879Z,-0.90
2019-01-30T02:54:03.586Z,-0.80
2019-01-30T02:56:33.340Z,-0.80
2019-01-30T02:59:03.442Z,-0.70
2019-01-30T03:01:34.772Z,-0.80
2019-01-30T03:04:04.633Z,-0.80
2019-01-30T03:06:36.113Z,-0.80
2019-01-30T03:09:07.306Z,-0.80
2019-01-30T03:11:37.258Z,-1.10
2019-01-30T03:14:06.772Z,-1.40
2019-01-30T03:16:36.312Z,-1.50
2019-01-30T03:19:05.785Z,-1.60
2019-01-30T03:21:35.346Z,-1.60
2019-01-30T03:24:04.877Z,-1.60
2019-01-30T03:26:34.487Z,-1.60
2019-01-30T03:29:04.021Z,-1.60
2019-01-30T03:31:33.579Z,-1.60
2019-01-30T03:34:03.333Z,-1.60
2019-01-30T03:36:32.887Z,-1.70
2019-01-30T03:39:04.033Z,-1.60
2019-01-30T03:41:33.641Z,-1.60
2019-01-30T03:44:03.217Z,-1.50
2019-01-30T03:46:32.823Z,-1.40
2019-01-30T03:49:02.393Z,-1.40
2019-01-30T03:51:31.641Z,-1.40
2019-01-30T03:54:01.209Z,-1.40
2019-01-30T03:56:30.733Z,-1.40
2019-01-30T03:59:00.352Z,-1.40
2019-01-30T04:01:29.670Z,-1.50
2019-01-30T04:03:59.231Z,-1.40
2019-01-30T04:06:30.227Z,-1.40
2019-01-30T04:08:59.807Z,-1.40
2019-01-30T04:11:29.360Z,-1.40
2019-01-30T04:14:00.639Z,-1.40
2019-01-30T04:16:30.490Z,-1.40
2019-01-30T04:18:59.782Z,-1.40
2019-01-30T04:21:29.340Z,-1.30
2019-01-30T04:23:58.609Z,-1.40
2019-01-30T04:26:28.128Z,-1.40
2019-01-30T04:28:57.507Z,-1.40
2019-01-30T04:31:37.608Z,-1.40
2019-01-30T04:34:01.285Z,-1.20
2019-01-30T04:36:30.949Z,-1.20
2019-01-30T04:39:00.630Z,-1.10
2019-01-30T04:41:30.168Z,-1.10
2019-01-30T04:43:59.685Z,-1.00
2019-01-30T04:46:29.230Z,-1.00
2019-01-30T04:48:58.866Z,-0.80
2019-01-30T04:51:28.441Z,-0.70
2019-01-30T04:53:57.895Z,-0.70
2019-01-30T04:56:27.192Z,-0.60
2019-01-30T04:58:56.786Z,-0.60
2019-01-30T05:01:26.177Z,-0.60
2019-01-30T05:03:55.525Z,-0.60
2019-01-30T05:06:24.897Z,-0.60
2019-01-30T05:08:56.153Z,-0.60
2019-01-30T05:11:26.136Z,-0.50
2019-01-30T05:13:57.114Z,-0.50
2019-01-30T05:16:26.876Z,-0.50
2019-01-30T05:18:56.290Z,-0.50
2019-01-30T05:21:25.637Z,-0.50
2019-01-30T05:23:55.162Z,-0.50
2019-01-30T05:26:25.879Z,-0.60
2019-01-30T05:28:55.354Z,-0.50
2019-01-30T05:31:24.714Z,-0.50
2019-01-30T05:33:54.044Z,-0.50
2019-01-30T05:36:26.018Z,-0.50
2019-01-30T05:38:56.725Z,-0.40
2019-01-30T05:41:35.098Z,-0.40
2019-01-30T05:44:00.286Z,-0.40
2019-01-30T05:46:29.887Z,-0.40
2019-01-30T05:48:59.957Z,-0.40
2019-01-30T05:51:29.410Z,-0.40
2019-01-30T05:54:17.132Z,-0.50
2019-01-30T06:00:28.929Z,-0.60
2019-01-30T06:02:55.634Z,-0.70
2019-01-30T06:05:25.015Z,-0.80
2019-01-30T06:07:54.932Z,-0.70
2019-01-30T06:10:24.288Z,-0.70
2019-01-30T06:12:53.515Z,-0.70
2019-01-30T06:15:23.051Z,-0.70
2019-01-30T06:17:52.385Z,-0.80
2019-01-30T06:20:24.203Z,-0.90
2019-01-30T06:22:53.730Z,-0.80
2019-01-30T06:25:22.997Z,-0.90
2019-01-30T06:27:52.671Z,-0.90
2019-01-30T06:30:22.274Z,-0.90
2019-01-30T06:32:51.834Z,-0.90
2019-01-30T06:35:21.290Z,-0.90
2019-01-30T06:37:51.240Z,-0.80
2019-01-30T06:40:25.962Z,-0.80
2019-01-30T06:42:56.074Z,-0.80
2019-01-30T06:45:25.593Z,-0.80
2019-01-30T06:47:55.125Z,-0.80
2019-01-30T06:50:24.438Z,-0.80
2019-01-30T06:52:53.832Z,-1.00
2019-01-30T06:55:23.186Z,-1.10
2019-01-30T06:57:52.792Z,-1.20
2019-01-30T07:00:24.333Z,-1.30
2019-01-30T07:02:55.566Z,-1.30
2019-01-30T07:05:25.308Z,-1.30
2019-01-30T07:07:55.141Z,-1.40
2019-01-30T07:10:26.640Z,-1.40
2019-01-30T07:12:56.276Z,-1.30
2019-01-30T07:15:26.108Z,-1.20
2019-01-30T07:17:55.570Z,-1.20
2019-01-30T07:20:25.428Z,-1.20
2019-01-30T07:22:55.002Z,-1.20
2019-01-30T07:25:24.612Z,-1.10
2019-01-30T07:27:54.198Z,-1.10
2019-01-30T07:30:31.822Z,-1.10
2019-01-30T07:33:01.144Z,-1.10
2019-01-30T07:35:30.501Z,-1.00
2019-01-30T07:37:59.816Z,-1.00
2019-01-30T07:40:29.114Z,-1.10
2019-01-30T07:42:58.768Z,-1.10
2019-01-30T07:45:29.226Z,-1.10
2019-01-30T07:47:58.507Z,-1.10
2019-01-30T07:50:27.789Z,-1.00
2019-01-30T07:52:58.894Z,-1.00
2019-01-30T07:55:28.523Z,-1.00
2019-01-30T07:58:00.232Z,-1.10
2019-01-30T08:00:31.412Z,-1.10
2019-01-30T08:03:01.393Z,-1.10
2019-01-30T08:05:31.123Z,-1.10
2019-01-30T08:08:00.413Z,-1.10
2019-01-30T08:10:29.981Z,-1.00
2019-01-30T08:12:59.261Z,-1.10
2019-01-30T08:15:28.888Z,-1.00
2019-01-30T08:17:58.172Z,-1.00
2019-01-30T08:20:27.414Z,-0.90
2019-01-30T08:22:56.933Z,-1.00
2019-01-30T08:25:26.333Z,-1.00
2019-01-30T08:27:56.267Z,-1.00
2019-01-30T08:30:28.029Z,-1.00
2019-01-30T08:33:04.733Z,-0.90
2019-01-30T08:35:30.724Z,-0.80
2019-01-30T08:38:01.194Z,-0.90
2019-01-30T08:40:31.309Z,-0.90
2019-01-30T08:43:00.939Z,-0.90
2019-01-30T08:45:31.970Z,-0.90
2019-01-30T08:48:01.299Z,-0.80
2019-01-30T08:50:30.965Z,-0.60
2019-01-30T08:53:01.526Z,-0.60
2019-01-30T08:55:32.337Z,-0.60
2019-01-30T08:58:02.242Z,-0.60
2019-01-30T09:00:31.868Z,-0.70
2019-01-30T09:03:01.335Z,-0.60
2019-01-30T09:05:30.902Z,-0.60
2019-01-30T09:08:00.198Z,-0.40
2019-01-30T09:10:30.921Z,-0.50
2019-01-30T09:13:00.536Z,-0.60
2019-01-30T09:15:30.438Z,-0.70
2019-01-30T09:18:00.173Z,-0.50
2019-01-30T09:20:29.799Z,-0.50
2019-01-30T09:22:59.506Z,-0.50
2019-01-30T09:25:32.530Z,-0.60
2019-01-30T09:28:02.388Z,-0.40
2019-01-30T09:30:36.859Z,-0.30
2019-01-30T09:33:08.243Z,-0.30
2019-01-30T09:35:37.779Z,-0.40
2019-01-30T09:38:07.417Z,-0.30
2019-01-30T09:40:37.299Z,-0.10
2019-01-30T09:43:07.260Z,-0.40
2019-01-30T09:45:36.469Z,-0.40
2019-01-30T09:48:08.000Z,-0.50
2019-01-30T09:50:37.543Z,-0.50
2019-01-30T09:53:06.985Z,-0.30
2019-01-30T09:55:36.359Z,-0.30
2019-01-30T09:58:05.766Z,-0.20
2019-01-30T10:00:36.456Z,-0.10
2019-01-30T10:03:06.270Z,0.10
2019-01-30T10:05:35.680Z,0.30
2019-01-30T10:08:13.584Z,0.50
2019-01-30T10:10:43.152Z,0.50
2019-01-30T10:13:12.451Z,0.40
2019-01-30T10:15:43.881Z,0.30
2019-01-30T10:18:14.917Z,0.30
2019-01-30T10:20:47.074Z,0.40
2019-01-30T10:23:16.548Z,0.50
2019-01-30T10:25:45.922Z,0.50
2019-01-30T10:28:16.989Z,0.70
2019-01-30T10:30:47.090Z,0.70
2019-01-30T10:33:16.821Z,0.80
2019-01-30T10:35:46.582Z,1.00
2019-01-30T10:38:17.067Z,1.00
2019-01-30T10:40:46.428Z,1.00
2019-01-30T10:43:15.696Z,1.20
2019-01-30T10:45:44.968Z,1.30
2019-01-30T10:48:14.767Z,1.30
2019-01-30T10:50:44.080Z,1.50
2019-01-30T10:53:13.480Z,1.50
2019-01-30T10:55:42.763Z,1.30
2019-01-30T10:58:15.350Z,1.40
2019-01-30T11:00:49.675Z,1.60
2019-01-30T11:03:19.448Z,1.60
2019-01-30T11:05:48.865Z,1.10
2019-01-30T11:08:18.306Z,0.80
2019-01-30T11:10:47.705Z,0.60
2019-01-30T11:13:18.270Z,0.70
2019-01-30T11:15:47.627Z,0.60
2019-01-30T11:18:17.330Z,0.40
2019-01-30T11:20:46.621Z,0.50
2019-01-30T11:23:16.304Z,0.50
2019-01-30T11:25:48.381Z,0.30
2019-01-30T11:28:18.210Z,0.20
2019-01-30T11:30:47.485Z,0.20
2019-01-30T11:33:17.373Z,-0.10
2019-01-30T11:35:46.720Z,-0.30
2019-01-30T11:38:16.058Z,-0.10
2019-01-30T11:40:45.364Z,-0.10
2019-01-30T11:43:14.705Z,0.00
2019-01-30T11:45:45.022Z,0.00
2019-01-30T11:48:14.306Z,0.10
2019-01-30T11:50:44.164Z,-0.10
2019-01-30T11:53:13.483Z,-0.20
2019-01-30T11:55:43.111Z,-0.20
2019-01-30T11:58:12.713Z,-0.30
2019-01-30T12:00:45.653Z,-0.30
2019-01-30T12:03:14.954Z,-0.40
2019-01-30T12:05:46.380Z,-0.50
2019-01-30T12:08:15.924Z,-0.70
2019-01-30T12:10:45.232Z,-0.70
2019-01-30T12:13:14.825Z,-0.70
2019-01-30T12:15:44.402Z,-0.80
2019-01-30T12:18:14.102Z,-0.80
2019-01-30T12:20:43.882Z,-0.80
2019-01-30T12:23:13.619Z,-0.70
2019-01-30T12:25:43.589Z,-0.70
2019-01-30T12:28:12.899Z,-0.70
2019-01-30T12:30:42.460Z,-0.60
2019-01-30T12:33:12.053Z,-0.50
2019-01-30T12:35:41.339Z,-0.40
2019-01-30T12:38:10.553Z,-0.50
2019-01-30T12:40:40.141Z,-0.40
2019-01-30T12:43:09.453Z,-0.40
2019-01-30T12:45:38.792Z,-0.50
2019-01-30T12:48:27.548Z,-0.40
2019-01-30T12:51:02.378Z,-0.40
2019-01-30T12:53:34.748Z,-0.30
2019-01-30T12:56:04.033Z,-0.40
2019-01-30T12:58:33.532Z,-0.50
2019-01-30T13:01:02.889Z,-0.60
2019-01-30T13:03:32.201Z,-0.50
2019-01-30T13:06:01.519Z,-0.40
2019-01-30T13:08:33.473Z,-0.40
2019-01-30T13:11:02.890Z,-0.30
2019-01-30T13:13:32.274Z,-0.20
2019-01-30T13:16:01.906Z,-0.30
2019-01-30T13:18:31.341Z,-0.20
2019-01-30T13:21:00.912Z,-0.10
2019-01-30T13:23:30.381Z,-0.20
2019-01-30T13:25:59.597Z,-0.10
2019-01-30T13:28:29.419Z,-0.10
2019-01-30T13:30:58.985Z,-0.10
2019-01-30T13:33:28.266Z,-0.20
2019-01-30T13:35:57.838Z,-0.20
2019-01-30T13:38:30.624Z,-0.20
2019-01-30T13:40:59.909Z,-0.10
2019-01-30T13:43:29.521Z,-0.10
2019-01-30T13:46:05.201Z,-0.10
2019-01-30T13:48:31.599Z,-0.10
2019-01-30T13:51:01.111Z,0.00
2019-01-30T13:53:30.462Z,-0.10
2019-01-30T13:55:59.772Z,0.00
2019-01-30T13:58:29.272Z,0.00
2019-01-30T14:00:58.646Z,-0.10
2019-01-30T14:03:27.853Z,-0.30
2019-01-30T14:05:57.528Z,-0.20
2019-01-30T14:08:27.092Z,-0.10
2019-01-30T14:10:56.689Z,-0.20
2019-01-30T14:13:26.078Z,-0.10
2019-01-30T14:15:55.574Z,-0.30
2019-01-30T14:18:25.019Z,-0.20
2019-01-30T14:20:54.356Z,-0.10
2019-01-30T14:23:23.737Z,0.00
2019-01-30T14:25:53.309Z,-0.10
2019-01-30T14:28:22.573Z,-0.10
2019-01-30T14:30:52.079Z,-0.10
2019-01-30T14:33:21.418Z,-0.10
2019-01-30T14:35:51.125Z,-0.10
2019-01-30T14:38:20.683Z,0.00
2019-01-30T14:40:50.426Z,0.10
2019-01-30T14:43:19.678Z,0.20
2019-01-30T14:45:51.336Z,0.10
2019-01-30T14:48:22.601Z,0.20
2019-01-30T14:50:51.665Z,0.20
2019-01-30T14:53:29.224Z,0.20
2019-01-30T14:55:58.656Z,0.30
2019-01-30T14:58:27.954Z,0.20
2019-01-30T15:00:57.230Z,0.20
2019-01-30T15:03:26.620Z,0.20
2019-01-30T15:05:55.937Z,0.30
2019-01-30T15:08:28.792Z,0.40
2019-01-30T15:10:58.047Z,0.30
2019-01-30T15:13:27.640Z,0.40
2019-01-30T15:15:56.982Z,0.40
2019-01-30T15:18:26.256Z,0.40
2019-01-30T15:20:55.690Z,0.30
2019-01-30T15:23:25.118Z,0.40
2019-01-30T15:25:54.406Z,0.40
2019-01-30T15:28:23.700Z,0.40
2019-01-30T15:30:52.920Z,0.20
2019-01-30T15:33:22.255Z,0.20
2019-01-30T15:35:51.993Z,0.20
2019-01-30T15:38:21.455Z,0.20
2019-01-30T15:40:50.680Z,0.40
2019-01-30T15:43:20.071Z,0.30
2019-01-30T15:45:49.644Z,0.30
2019-01-30T15:48:19.018Z,0.40
2019-01-30T15:50:48.320Z,0.30
2019-01-30T15:53:20.107Z,0.30
2019-01-30T15:55:52.396Z,0.30
2019-01-30T15:58:21.706Z,0.40
2019-01-30T16:01:15.589Z,0.30
2019-01-30T16:03:45.190Z,0.30
2019-01-30T16:06:14.741Z,0.30
2019-01-30T16:08:44.050Z,0.30
2019-01-30T16:11:13.641Z,0.30
2019-01-30T16:13:42.972Z,0.20
2019-01-30T16:16:12.308Z,0.30
2019-01-30T16:18:41.582Z,0.20
2019-01-30T16:21:10.870Z,0.20
2019-01-30T16:23:40.257Z,0.10
2019-01-30T16:26:09.569Z,0.10
2019-01-30T16:28:38.844Z,0.10
2019-01-30T16:31:08.210Z,0.20
2019-01-30T16:33:37.585Z,0.10
2019-01-30T16:36:06.808Z,0.20
2019-01-30T16:38:36.106Z,0.10
2019-01-30T16:41:05.826Z,0.10
2019-01-30T16:43:38.196Z,0.10
2019-01-30T16:46:07.658Z,0.20
2019-01-30T16:48:37.260Z,0.10
2019-01-30T16:51:06.863Z,0.20
2019-01-30T16:53:36.170Z,0.10
2019-01-30T16:56:05.792Z,0.20
2019-01-30T16:58:35.135Z,0.20
2019-01-30T17:01:04.561Z,0.20
2019-01-30T17:03:33.898Z,0.20
2019-01-30T17:06:07.607Z,0.30
2019-01-30T17:08:34.685Z,0.30
2019-01-30T17:11:04.361Z,0.30
2019-01-30T17:13:33.786Z,0.30
2019-01-30T17:16:03.538Z,0.30
2019-01-30T17:18:35.851Z,0.30
2019-01-30T17:21:07.491Z,0.30
2019-01-30T17:23:40.434Z,0.10
2019-01-30T17:26:10.548Z,0.10
2019-01-30T17:28:42.976Z,0.20
2019-01-30T17:31:22.102Z,0.20
2019-01-30T17:33:51.501Z,0.20
2019-01-30T17:36:21.115Z,0.20
2019-01-30T17:38:51.066Z,0.30
2019-01-30T17:41:24.734Z,0.20
2019-01-30T17:43:54.310Z,0.20
2019-01-30T17:46:23.846Z,0.30
2019-01-30T17:48:53.638Z,0.30
2019-01-30T17:51:23.166Z,0.30
2019-01-30T17:53:52.970Z,0.30
2019-01-30T17:56:22.369Z,0.30
2019-01-30T17:58:51.857Z,0.30
2019-01-30T18:01:21.257Z,0.30
2019-01-30T18:03:50.649Z,0.30
2019-01-30T18:06:29.649Z,0.30
2019-01-30T18:08:53.443Z,0.20
2019-01-30T18:11:23.056Z,0.20
2019-01-30T18:13:59.708Z,0.30
2019-01-30T18:16:29.055Z,0.20
2019-01-30T18:18:58.318Z,0.30
2019-01-30T18:21:36.539Z,0.30
2019-01-30T18:24:06.004Z,0.30
2019-01-30T18:26:39.180Z,0.30
2019-01-30T18:29:08.650Z,0.40
2019-01-30T18:31:38.447Z,0.20
2019-01-30T18:34:11.061Z,0.50
2019-01-30T18:36:41.452Z,0.30
2019-01-30T18:39:11.339Z,0.30
2019-01-30T18:41:43.543Z,0.30
2019-01-30T18:44:13.675Z,0.40
2019-01-30T18:46:44.244Z,0.40
2019-01-30T18:49:16.466Z,0.40
2019-01-30T18:51:46.237Z,0.40
2019-01-30T18:54:15.845Z,0.00
2019-01-30T18:56:45.622Z,0.40
2019-01-30T18:59:15.092Z,0.40
2019-01-30T19:01:44.442Z,0.40
2019-01-30T19:04:14.375Z,0.40
2019-01-30T19:06:52.082Z,0.40
2019-01-30T19:09:16.613Z,0.40
2019-01-30T19:11:45.927Z,0.50
2019-01-30T19:14:15.450Z,0.40
2019-01-30T19:16:44.708Z,0.50
2019-01-30T19:19:14.562Z,0.50
2019-01-30T19:21:43.970Z,0.60
2019-01-30T19:24:13.563Z,0.60
2019-01-30T19:26:43.021Z,0.50
2019-01-30T19:29:12.666Z,0.40
2019-01-30T19:31:42.044Z,0.50
2019-01-30T19:34:11.749Z,0.50
2019-01-30T19:36:41.083Z,0.40
2019-01-30T19:39:13.912Z,0.30
2019-01-30T19:41:45.280Z,0.30
2019-01-30T19:44:14.827Z,0.40
2019-01-30T19:46:44.417Z,0.40
2019-01-30T19:49:14.402Z,0.40
2019-01-30T19:51:44.856Z,0.30
2019-01-30T19:54:14.194Z,0.40
2019-01-30T19:56:44.245Z,0.30
2019-01-30T19:59:17.721Z,0.20
2019-01-30T20:01:45.938Z,0.30
2019-01-30T20:04:16.077Z,0.20
2019-01-30T20:06:46.161Z,0.10
2019-01-30T20:09:18.339Z,0.00
2019-01-30T20:11:48.500Z,0.10
2019-01-30T20:14:18.138Z,-0.10
2019-01-30T20:16:47.711Z,-0.10
2019-01-30T20:19:17.334Z,-0.10
2019-01-30T20:21:46.967Z,-0.30
2019-01-30T20:24:16.316Z,-0.40
2019-01-30T20:26:45.744Z,-0.20
2019-01-30T20:29:15.846Z,-0.30
2019-01-30T20:31:46.227Z,-0.30
2019-01-30T20:34:15.918Z,-0.30
2019-01-30T20:36:45.955Z,-0.30
2019-01-30T20:39:15.495Z,-0.40
2019-01-30T20:41:45.623Z,-0.40
2019-01-30T20:44:15.672Z,-0.50
2019-01-30T20:46:45.322Z,-0.50
2019-01-30T20:49:14.693Z,-0.50
2019-01-30T20:51:47.803Z,-0.40
2019-01-30T20:54:17.443Z,-0.50
2019-01-30T20:56:47.205Z,-0.50
2019-01-30T20:59:16.815Z,-0.50
2019-01-30T21:01:46.380Z,-0.60
2019-01-30T21:04:17.540Z,-0.70
2019-01-30T21:06:47.414Z,-0.80
2019-01-30T21:09:16.976Z,-0.80
2019-01-30T21:11:46.671Z,-0.70
2019-01-30T21:14:16.344Z,-0.70
2019-01-30T21:16:45.910Z,-0.80
2019-01-30T21:19:17.120Z,-0.80
2019-01-30T21:21:47.768Z,-0.80
2019-01-30T21:24:18.600Z,-0.90
2019-01-30T21:26:54.862Z,-1.00
2019-01-30T21:29:24.702Z,-1.10
2019-01-30T21:31:59.816Z,-1.10
2019-01-30T21:34:30.234Z,-1.20
2019-01-30T21:37:14.697Z,-1.30
2019-01-30T21:39:44.568Z,-1.30
2019-01-30T21:42:14.287Z,-1.30
2019-01-30T21:44:44.187Z,-1.30
2019-01-30T21:47:13.841Z,-1.30
2019-01-30T21:49:43.539Z,-1.30
2019-01-30T21:52:13.311Z,-1.40
2019-01-30T21:54:47.219Z,-1.40
2019-01-30T21:57:19.759Z,-1.40
2019-01-30T21:59:49.564Z,-1.50
2019-01-30T22:02:23.624Z,-1.50
2019-01-30T22:04:53.755Z,-1.50
2019-01-30T22:07:27.645Z,-1.50
2019-01-30T22:09:58.536Z,-1.50
2019-01-30T22:12:28.519Z,-1.60
2019-01-30T22:14:58.168Z,-1.50
2019-01-30T22:17:28.073Z,-1.50
2019-01-30T22:19:57.850Z,-1.60
2019-01-30T22:22:29.350Z,-1.60
2019-01-30T22:24:59.114Z,-1.60
2019-01-30T22:27:28.736Z,-1.60
2019-01-30T22:29:58.345Z,-1.70
2019-01-30T22:32:27.722Z,-1.60
2019-01-30T22:34:57.032Z,-1.70
2019-01-30T22:37:26.654Z,-1.60
2019-01-30T22:39:56.293Z,-1.60
2019-01-30T22:42:25.685Z,-1.70
2019-01-30T22:44:55.313Z,-1.70
2019-01-30T22:47:24.726Z,-1.70
2019-01-30T22:49:54.398Z,-1.80
2019-01-30T22:52:23.995Z,-1.80
2019-01-30T22:54:53.718Z,-1.90
2019-01-30T22:57:23.636Z,-1.80
2019-01-30T22:59:53.570Z,-1.90
2019-01-30T23:02:23.511Z,-1.90
2019-01-30T23:05:05.303Z,-1.90
2019-01-30T23:08:22.651Z,-1.90
2019-01-30T23:11:25.500Z,-1.90
2019-01-30T23:14:16.227Z,-2.00
2019-01-30T23:17:28.670Z,-2.00
2019-01-30T23:20:35.306Z,-2.10
2019-01-30T23:23:44.557Z,-2.20
2019-01-30T23:27:01.194Z,-2.20
2019-01-30T23:30:13.714Z,-2.30
2019-01-30T23:33:15.264Z,-2.30
2019-01-30T23:36:16.189Z,-2.30
2019-01-30T23:39:31.741Z,-2.30
2019-01-30T23:42:27.640Z,-2.20
2019-01-30T23:45:13.980Z,-2.20
2019-01-30T23:48:00.609Z,-2.10
2019-01-30T23:51:06.013Z,-2.00
2019-01-30T23:53:58.957Z,-1.90
2019-01-30T23:56:55.901Z,-1.70
2019-01-30T23:59:46.050Z,-1.60
